sensor_id;sensor_type;location;lat;lon;timestamp;P1;durP1;ratioP1;P2;durP2;ratioP2
12900;SDS011;6518;50.930;5.344;2024-02-28T00:01:19;80.30;;;43.53;;
12900;SDS011;6518;50.930;5.344;2024-02-28T00:03:48;78.53;;;44.70;;
12900;SDS011;6518;50.930;5.344;2024-02-28T00:06:15;76.50;;;44.00;;
12900;SDS011;6518;50.930;5.344;2024-02-28T00:08:43;83.00;;;45.30;;
12900;SDS011;6518;50.930;5.344;2024-02-28T00:11:10;76.03;;;44.10;;
12900;SDS011;6518;50.930;5.344;2024-02-28T00:13:37;78.57;;;43.73;;
12900;SDS011;6518;50.930;5.344;2024-02-28T00:16:05;80.87;;;44.53;;
12900;SDS011;6518;50.930;5.344;2024-02-28T00:18:32;78.63;;;45.00;;
12900;SDS011;6518;50.930;5.344;2024-02-28T00:21:01;75.47;;;43.50;;
12900;SDS011;6518;50.930;5.344;2024-02-28T00:23:28;79.70;;;45.03;;
12900;SDS011;6518;50.930;5.344;2024-02-28T00:25:56;76.23;;;43.53;;
12900;SDS011;6518;50.930;5.344;2024-02-28T00:28:28;82.37;;;45.20;;
12900;SDS011;6518;50.930;5.344;2024-02-28T00:30:54;70.43;;;41.67;;
12900;SDS011;6518;50.930;5.344;2024-02-28T00:33:21;77.97;;;44.23;;
12900;SDS011;6518;50.930;5.344;2024-02-28T00:35:51;76.60;;;44.23;;
12900;SDS011;6518;50.930;5.344;2024-02-28T00:38:20;78.23;;;43.47;;
12900;SDS011;6518;50.930;5.344;2024-02-28T00:40:47;73.77;;;41.70;;
12900;SDS011;6518;50.930;5.344;2024-02-28T00:43:14;79.53;;;44.13;;
12900;SDS011;6518;50.930;5.344;2024-02-28T00:45:41;71.93;;;41.63;;
12900;SDS011;6518;50.930;5.344;2024-02-28T00:48:09;72.67;;;42.57;;
12900;SDS011;6518;50.930;5.344;2024-02-28T00:50:37;78.20;;;42.43;;
12900;SDS011;6518;50.930;5.344;2024-02-28T00:53:04;76.07;;;42.37;;
12900;SDS011;6518;50.930;5.344;2024-02-28T00:55:33;74.87;;;41.93;;
12900;SDS011;6518;50.930;5.344;2024-02-28T00:58:00;76.93;;;42.97;;
12900;SDS011;6518;50.930;5.344;2024-02-28T01:00:27;70.50;;;41.10;;
12900;SDS011;6518;50.930;5.344;2024-02-28T01:02:54;71.93;;;41.20;;
12900;SDS011;6518;50.930;5.344;2024-02-28T01:05:21;68.70;;;39.77;;
12900;SDS011;6518;50.930;5.344;2024-02-28T01:07:48;70.40;;;40.07;;
12900;SDS011;6518;50.930;5.344;2024-02-28T01:10:15;69.67;;;39.83;;
12900;SDS011;6518;50.930;5.344;2024-02-28T01:12:44;72.23;;;40.93;;
12900;SDS011;6518;50.930;5.344;2024-02-28T01:15:11;70.43;;;40.97;;
12900;SDS011;6518;50.930;5.344;2024-02-28T01:17:38;71.70;;;40.73;;
12900;SDS011;6518;50.930;5.344;2024-02-28T01:20:05;76.23;;;42.17;;
12900;SDS011;6518;50.930;5.344;2024-02-28T01:22:33;77.73;;;42.77;;
12900;SDS011;6518;50.930;5.344;2024-02-28T01:25:00;68.47;;;39.43;;
12900;SDS011;6518;50.930;5.344;2024-02-28T01:27:28;72.77;;;42.10;;
12900;SDS011;6518;50.930;5.344;2024-02-28T01:29:56;78.53;;;43.17;;
12900;SDS011;6518;50.930;5.344;2024-02-28T01:32:24;75.13;;;41.00;;
12900;SDS011;6518;50.930;5.344;2024-02-28T01:34:51;80.63;;;42.53;;
12900;SDS011;6518;50.930;5.344;2024-02-28T01:37:19;71.57;;;41.43;;
12900;SDS011;6518;50.930;5.344;2024-02-28T01:39:49;72.50;;;41.53;;
12900;SDS011;6518;50.930;5.344;2024-02-28T01:42:16;72.50;;;41.77;;
12900;SDS011;6518;50.930;5.344;2024-02-28T01:44:44;75.67;;;42.07;;
12900;SDS011;6518;50.930;5.344;2024-02-28T01:47:15;71.73;;;40.07;;
12900;SDS011;6518;50.930;5.344;2024-02-28T01:49:45;71.13;;;40.80;;
12900;SDS011;6518;50.930;5.344;2024-02-28T01:52:13;71.47;;;38.60;;
12900;SDS011;6518;50.930;5.344;2024-02-28T01:54:41;70.23;;;40.33;;
12900;SDS011;6518;50.930;5.344;2024-02-28T01:57:11;70.90;;;40.33;;
12900;SDS011;6518;50.930;5.344;2024-02-28T01:59:38;73.07;;;39.97;;
12900;SDS011;6518;50.930;5.344;2024-02-28T02:02:13;71.50;;;40.83;;
12900;SDS011;6518;50.930;5.344;2024-02-28T02:04:41;73.33;;;41.00;;
12900;SDS011;6518;50.930;5.344;2024-02-28T02:07:08;70.27;;;40.27;;
12900;SDS011;6518;50.930;5.344;2024-02-28T02:09:35;73.07;;;40.47;;
12900;SDS011;6518;50.930;5.344;2024-02-28T02:12:02;67.03;;;39.63;;
12900;SDS011;6518;50.930;5.344;2024-02-28T02:14:29;69.43;;;40.10;;
12900;SDS011;6518;50.930;5.344;2024-02-28T02:16:56;74.20;;;42.53;;
12900;SDS011;6518;50.930;5.344;2024-02-28T02:19:24;74.27;;;42.10;;
12900;SDS011;6518;50.930;5.344;2024-02-28T02:21:56;70.43;;;39.60;;
12900;SDS011;6518;50.930;5.344;2024-02-28T02:24:26;67.23;;;39.03;;
12900;SDS011;6518;50.930;5.344;2024-02-28T02:26:54;71.60;;;40.20;;
12900;SDS011;6518;50.930;5.344;2024-02-28T02:29:23;72.80;;;40.43;;
12900;SDS011;6518;50.930;5.344;2024-02-28T02:31:50;66.03;;;38.80;;
12900;SDS011;6518;50.930;5.344;2024-02-28T02:34:17;72.20;;;41.13;;
12900;SDS011;6518;50.930;5.344;2024-02-28T02:36:44;69.60;;;39.83;;
12900;SDS011;6518;50.930;5.344;2024-02-28T02:39:11;70.23;;;40.37;;
12900;SDS011;6518;50.930;5.344;2024-02-28T02:41:39;67.83;;;40.47;;
12900;SDS011;6518;50.930;5.344;2024-02-28T02:44:06;73.97;;;40.73;;
12900;SDS011;6518;50.930;5.344;2024-02-28T02:46:34;68.00;;;38.67;;
12900;SDS011;6518;50.930;5.344;2024-02-28T02:49:01;72.30;;;40.30;;
12900;SDS011;6518;50.930;5.344;2024-02-28T02:51:28;69.87;;;38.57;;
12900;SDS011;6518;50.930;5.344;2024-02-28T02:53:55;69.37;;;39.70;;
12900;SDS011;6518;50.930;5.344;2024-02-28T02:56:22;71.93;;;40.57;;
12900;SDS011;6518;50.930;5.344;2024-02-28T02:58:50;67.77;;;39.40;;
12900;SDS011;6518;50.930;5.344;2024-02-28T03:01:17;67.63;;;39.13;;
12900;SDS011;6518;50.930;5.344;2024-02-28T03:03:45;70.50;;;40.33;;
12900;SDS011;6518;50.930;5.344;2024-02-28T03:06:13;67.87;;;40.13;;
12900;SDS011;6518;50.930;5.344;2024-02-28T03:08:40;71.27;;;40.43;;
12900;SDS011;6518;50.930;5.344;2024-02-28T03:11:07;71.10;;;38.73;;
12900;SDS011;6518;50.930;5.344;2024-02-28T03:13:34;69.27;;;39.13;;
12900;SDS011;6518;50.930;5.344;2024-02-28T03:16:04;66.17;;;38.63;;
12900;SDS011;6518;50.930;5.344;2024-02-28T03:18:31;64.03;;;39.10;;
12900;SDS011;6518;50.930;5.344;2024-02-28T03:20:58;65.67;;;38.20;;
12900;SDS011;6518;50.930;5.344;2024-02-28T03:23:25;64.73;;;38.83;;
12900;SDS011;6518;50.930;5.344;2024-02-28T03:25:52;66.47;;;38.67;;
12900;SDS011;6518;50.930;5.344;2024-02-28T03:28:19;66.87;;;38.57;;
12900;SDS011;6518;50.930;5.344;2024-02-28T03:30:47;69.53;;;38.33;;
12900;SDS011;6518;50.930;5.344;2024-02-28T03:33:16;69.37;;;38.37;;
12900;SDS011;6518;50.930;5.344;2024-02-28T03:35:43;61.87;;;36.73;;
12900;SDS011;6518;50.930;5.344;2024-02-28T03:38:11;64.40;;;38.20;;
12900;SDS011;6518;50.930;5.344;2024-02-28T03:40:37;65.70;;;37.60;;
12900;SDS011;6518;50.930;5.344;2024-02-28T03:43:04;65.03;;;37.67;;
12900;SDS011;6518;50.930;5.344;2024-02-28T03:45:31;63.27;;;36.70;;
12900;SDS011;6518;50.930;5.344;2024-02-28T03:48:04;70.33;;;39.33;;
12900;SDS011;6518;50.930;5.344;2024-02-28T03:50:33;71.30;;;38.37;;
12900;SDS011;6518;50.930;5.344;2024-02-28T03:53:00;64.53;;;37.87;;
12900;SDS011;6518;50.930;5.344;2024-02-28T03:55:27;64.43;;;38.23;;
12900;SDS011;6518;50.930;5.344;2024-02-28T03:57:54;66.53;;;37.67;;
12900;SDS011;6518;50.930;5.344;2024-02-28T04:00:21;61.40;;;37.33;;
12900;SDS011;6518;50.930;5.344;2024-02-28T04:02:50;63.00;;;36.00;;
12900;SDS011;6518;50.930;5.344;2024-02-28T04:05:17;60.20;;;35.83;;
12900;SDS011;6518;50.930;5.344;2024-02-28T04:07:46;63.67;;;36.47;;
12900;SDS011;6518;50.930;5.344;2024-02-28T04:10:15;63.93;;;36.60;;
12900;SDS011;6518;50.930;5.344;2024-02-28T04:12:43;60.20;;;36.03;;
12900;SDS011;6518;50.930;5.344;2024-02-28T04:15:12;61.20;;;36.57;;
12900;SDS011;6518;50.930;5.344;2024-02-28T04:17:39;55.90;;;34.53;;
12900;SDS011;6518;50.930;5.344;2024-02-28T04:20:08;61.97;;;35.83;;
12900;SDS011;6518;50.930;5.344;2024-02-28T04:22:35;64.17;;;35.07;;
12900;SDS011;6518;50.930;5.344;2024-02-28T04:25:05;55.87;;;32.77;;
12900;SDS011;6518;50.930;5.344;2024-02-28T04:27:36;57.73;;;32.77;;
12900;SDS011;6518;50.930;5.344;2024-02-28T04:30:06;54.90;;;31.90;;
12900;SDS011;6518;50.930;5.344;2024-02-28T04:32:36;50.93;;;31.63;;
12900;SDS011;6518;50.930;5.344;2024-02-28T04:35:03;49.47;;;30.77;;
12900;SDS011;6518;50.930;5.344;2024-02-28T04:37:31;46.23;;;28.83;;
12900;SDS011;6518;50.930;5.344;2024-02-28T04:40:01;48.17;;;31.13;;
12900;SDS011;6518;50.930;5.344;2024-02-28T04:42:31;44.77;;;28.90;;
12900;SDS011;6518;50.930;5.344;2024-02-28T04:44:58;43.03;;;28.63;;
12900;SDS011;6518;50.930;5.344;2024-02-28T04:47:26;42.93;;;28.23;;
12900;SDS011;6518;50.930;5.344;2024-02-28T04:49:53;43.67;;;28.10;;
12900;SDS011;6518;50.930;5.344;2024-02-28T04:52:20;40.20;;;26.70;;
12900;SDS011;6518;50.930;5.344;2024-02-28T04:54:47;40.87;;;26.83;;
12900;SDS011;6518;50.930;5.344;2024-02-28T04:57:15;40.77;;;26.87;;
12900;SDS011;6518;50.930;5.344;2024-02-28T04:59:43;38.90;;;26.47;;
12900;SDS011;6518;50.930;5.344;2024-02-28T05:02:11;36.07;;;25.03;;
12900;SDS011;6518;50.930;5.344;2024-02-28T05:04:38;34.60;;;23.77;;
12900;SDS011;6518;50.930;5.344;2024-02-28T05:07:06;36.07;;;24.33;;
12900;SDS011;6518;50.930;5.344;2024-02-28T05:09:33;39.73;;;24.50;;
12900;SDS011;6518;50.930;5.344;2024-02-28T05:12:00;35.53;;;24.77;;
12900;SDS011;6518;50.930;5.344;2024-02-28T05:14:29;36.37;;;25.67;;
12900;SDS011;6518;50.930;5.344;2024-02-28T05:16:56;39.17;;;25.13;;
12900;SDS011;6518;50.930;5.344;2024-02-28T05:19:24;41.00;;;25.00;;
12900;SDS011;6518;50.930;5.344;2024-02-28T05:21:51;37.83;;;24.77;;
12900;SDS011;6518;50.930;5.344;2024-02-28T05:24:18;38.90;;;25.30;;
12900;SDS011;6518;50.930;5.344;2024-02-28T05:26:51;38.47;;;25.27;;
12900;SDS011;6518;50.930;5.344;2024-02-28T05:29:18;36.27;;;24.07;;
12900;SDS011;6518;50.930;5.344;2024-02-28T05:31:46;44.47;;;24.77;;
12900;SDS011;6518;50.930;5.344;2024-02-28T05:34:13;36.07;;;24.50;;
12900;SDS011;6518;50.930;5.344;2024-02-28T05:36:41;43.33;;;23.37;;
12900;SDS011;6518;50.930;5.344;2024-02-28T05:39:08;34.47;;;23.70;;
12900;SDS011;6518;50.930;5.344;2024-02-28T05:41:35;36.10;;;22.93;;
12900;SDS011;6518;50.930;5.344;2024-02-28T05:44:02;37.27;;;24.30;;
12900;SDS011;6518;50.930;5.344;2024-02-28T05:46:29;35.83;;;24.67;;
12900;SDS011;6518;50.930;5.344;2024-02-28T05:48:58;34.40;;;23.87;;
12900;SDS011;6518;50.930;5.344;2024-02-28T05:51:25;33.43;;;23.77;;
12900;SDS011;6518;50.930;5.344;2024-02-28T05:53:52;40.77;;;25.83;;
12900;SDS011;6518;50.930;5.344;2024-02-28T05:56:19;45.00;;;25.80;;
12900;SDS011;6518;50.930;5.344;2024-02-28T05:58:47;39.10;;;25.13;;
12900;SDS011;6518;50.930;5.344;2024-02-28T06:01:15;35.27;;;24.57;;
12900;SDS011;6518;50.930;5.344;2024-02-28T06:03:44;36.10;;;24.33;;
12900;SDS011;6518;50.930;5.344;2024-02-28T06:06:13;36.97;;;24.50;;
12900;SDS011;6518;50.930;5.344;2024-02-28T06:08:40;33.80;;;22.80;;
12900;SDS011;6518;50.930;5.344;2024-02-28T06:11:08;38.50;;;24.47;;
12900;SDS011;6518;50.930;5.344;2024-02-28T06:13:35;37.27;;;25.07;;
12900;SDS011;6518;50.930;5.344;2024-02-28T06:16:02;34.87;;;23.70;;
12900;SDS011;6518;50.930;5.344;2024-02-28T06:18:30;35.83;;;24.90;;
12900;SDS011;6518;50.930;5.344;2024-02-28T06:20:58;35.00;;;23.53;;
12900;SDS011;6518;50.930;5.344;2024-02-28T06:23:27;34.00;;;23.20;;
12900;SDS011;6518;50.930;5.344;2024-02-28T06:25:55;35.13;;;24.20;;
12900;SDS011;6518;50.930;5.344;2024-02-28T06:28:22;36.63;;;24.13;;
12900;SDS011;6518;50.930;5.344;2024-02-28T06:30:49;34.07;;;23.90;;
12900;SDS011;6518;50.930;5.344;2024-02-28T06:33:16;34.80;;;23.33;;
12900;SDS011;6518;50.930;5.344;2024-02-28T06:35:43;32.47;;;22.33;;
12900;SDS011;6518;50.930;5.344;2024-02-28T06:38:10;39.10;;;23.63;;
12900;SDS011;6518;50.930;5.344;2024-02-28T06:40:39;34.03;;;23.90;;
12900;SDS011;6518;50.930;5.344;2024-02-28T06:43:06;31.87;;;21.93;;
12900;SDS011;6518;50.930;5.344;2024-02-28T06:45:33;32.00;;;22.53;;
12900;SDS011;6518;50.930;5.344;2024-02-28T06:48:00;37.23;;;23.83;;
12900;SDS011;6518;50.930;5.344;2024-02-28T06:50:27;33.97;;;24.23;;
12900;SDS011;6518;50.930;5.344;2024-02-28T06:52:54;35.27;;;23.30;;
12900;SDS011;6518;50.930;5.344;2024-02-28T06:55:21;42.43;;;25.10;;
12900;SDS011;6518;50.930;5.344;2024-02-28T06:57:49;35.27;;;24.47;;
12900;SDS011;6518;50.930;5.344;2024-02-28T07:00:16;39.20;;;24.90;;
12900;SDS011;6518;50.930;5.344;2024-02-28T07:02:45;39.47;;;24.47;;
12900;SDS011;6518;50.930;5.344;2024-02-28T07:05:12;33.77;;;23.63;;
12900;SDS011;6518;50.930;5.344;2024-02-28T07:07:39;37.43;;;25.23;;
12900;SDS011;6518;50.930;5.344;2024-02-28T07:10:06;36.00;;;23.60;;
12900;SDS011;6518;50.930;5.344;2024-02-28T07:12:34;35.47;;;24.27;;
12900;SDS011;6518;50.930;5.344;2024-02-28T07:15:02;35.83;;;24.50;;
12900;SDS011;6518;50.930;5.344;2024-02-28T07:17:30;37.53;;;24.57;;
12900;SDS011;6518;50.930;5.344;2024-02-28T07:19:57;40.20;;;23.70;;
12900;SDS011;6518;50.930;5.344;2024-02-28T07:22:24;34.13;;;23.60;;
12900;SDS011;6518;50.930;5.344;2024-02-28T07:24:51;36.90;;;23.90;;
12900;SDS011;6518;50.930;5.344;2024-02-28T07:27:18;35.03;;;23.70;;
12900;SDS011;6518;50.930;5.344;2024-02-28T07:29:48;39.00;;;23.93;;
12900;SDS011;6518;50.930;5.344;2024-02-28T07:32:16;36.50;;;23.13;;
12900;SDS011;6518;50.930;5.344;2024-02-28T07:34:43;35.27;;;22.87;;
12900;SDS011;6518;50.930;5.344;2024-02-28T07:37:10;35.87;;;23.77;;
12900;SDS011;6518;50.930;5.344;2024-02-28T07:39:37;36.23;;;23.00;;
12900;SDS011;6518;50.930;5.344;2024-02-28T07:42:04;42.70;;;22.57;;
12900;SDS011;6518;50.930;5.344;2024-02-28T07:44:31;39.30;;;23.80;;
12900;SDS011;6518;50.930;5.344;2024-02-28T07:46:58;37.83;;;22.23;;
12900;SDS011;6518;50.930;5.344;2024-02-28T07:49:26;41.97;;;22.93;;
12900;SDS011;6518;50.930;5.344;2024-02-28T07:51:53;37.47;;;22.27;;
12900;SDS011;6518;50.930;5.344;2024-02-28T07:54:21;34.67;;;22.13;;
12900;SDS011;6518;50.930;5.344;2024-02-28T07:56:48;36.67;;;21.13;;
12900;SDS011;6518;50.930;5.344;2024-02-28T07:59:15;39.77;;;21.77;;
12900;SDS011;6518;50.930;5.344;2024-02-28T08:01:42;37.30;;;21.53;;
12900;SDS011;6518;50.930;5.344;2024-02-28T08:04:08;38.73;;;21.50;;
12900;SDS011;6518;50.930;5.344;2024-02-28T08:06:37;38.77;;;21.23;;
12900;SDS011;6518;50.930;5.344;2024-02-28T08:09:06;36.50;;;20.63;;
12900;SDS011;6518;50.930;5.344;2024-02-28T08:11:33;35.80;;;19.90;;
12900;SDS011;6518;50.930;5.344;2024-02-28T08:14:00;36.83;;;20.17;;
12900;SDS011;6518;50.930;5.344;2024-02-28T08:16:28;36.93;;;19.77;;
12900;SDS011;6518;50.930;5.344;2024-02-28T08:18:55;33.40;;;18.13;;
12900;SDS011;6518;50.930;5.344;2024-02-28T08:21:22;35.60;;;19.37;;
12900;SDS011;6518;50.930;5.344;2024-02-28T08:23:50;35.27;;;18.80;;
12900;SDS011;6518;50.930;5.344;2024-02-28T08:26:17;37.00;;;18.83;;
12900;SDS011;6518;50.930;5.344;2024-02-28T08:28:44;34.90;;;19.00;;
12900;SDS011;6518;50.930;5.344;2024-02-28T08:31:11;37.97;;;18.23;;
12900;SDS011;6518;50.930;5.344;2024-02-28T08:33:38;36.47;;;19.87;;
12900;SDS011;6518;50.930;5.344;2024-02-28T08:36:05;35.27;;;18.43;;
12900;SDS011;6518;50.930;5.344;2024-02-28T08:38:32;37.33;;;20.30;;
12900;SDS011;6518;50.930;5.344;2024-02-28T08:41:01;37.93;;;19.00;;
12900;SDS011;6518;50.930;5.344;2024-02-28T08:43:28;36.57;;;19.77;;
12900;SDS011;6518;50.930;5.344;2024-02-28T08:45:55;41.50;;;20.00;;
12900;SDS011;6518;50.930;5.344;2024-02-28T08:48:22;38.60;;;20.10;;
12900;SDS011;6518;50.930;5.344;2024-02-28T08:50:49;42.80;;;21.00;;
12900;SDS011;6518;50.930;5.344;2024-02-28T08:53:16;38.83;;;19.67;;
12900;SDS011;6518;50.930;5.344;2024-02-28T08:55:42;41.90;;;20.33;;
12900;SDS011;6518;50.930;5.344;2024-02-28T08:58:11;39.40;;;19.63;;
12900;SDS011;6518;50.930;5.344;2024-02-28T09:00:38;39.70;;;20.37;;
12900;SDS011;6518;50.930;5.344;2024-02-28T09:03:05;37.47;;;19.10;;
12900;SDS011;6518;50.930;5.344;2024-02-28T09:05:32;35.07;;;19.37;;
12900;SDS011;6518;50.930;5.344;2024-02-28T09:07:59;33.83;;;18.77;;
12900;SDS011;6518;50.930;5.344;2024-02-28T09:10:26;36.13;;;18.60;;
12900;SDS011;6518;50.930;5.344;2024-02-28T09:12:54;39.17;;;18.53;;
12900;SDS011;6518;50.930;5.344;2024-02-28T09:15:22;34.20;;;18.50;;
12900;SDS011;6518;50.930;5.344;2024-02-28T09:17:50;36.77;;;23.03;;
12900;SDS011;6518;50.930;5.344;2024-02-28T09:20:17;33.90;;;18.87;;
12900;SDS011;6518;50.930;5.344;2024-02-28T09:22:44;28.60;;;17.77;;
12900;SDS011;6518;50.930;5.344;2024-02-28T09:25:11;32.57;;;18.10;;
12900;SDS011;6518;50.930;5.344;2024-02-28T09:27:38;30.57;;;17.20;;
12900;SDS011;6518;50.930;5.344;2024-02-28T09:30:05;28.10;;;17.03;;
12900;SDS011;6518;50.930;5.344;2024-02-28T09:32:34;32.80;;;18.73;;
12900;SDS011;6518;50.930;5.344;2024-02-28T09:35:02;30.40;;;17.40;;
12900;SDS011;6518;50.930;5.344;2024-02-28T09:37:29;31.53;;;17.50;;
12900;SDS011;6518;50.930;5.344;2024-02-28T09:39:56;31.90;;;17.13;;
12900;SDS011;6518;50.930;5.344;2024-02-28T09:42:23;31.17;;;17.13;;
12900;SDS011;6518;50.930;5.344;2024-02-28T09:44:51;31.60;;;16.83;;
12900;SDS011;6518;50.930;5.344;2024-02-28T09:47:18;30.40;;;17.90;;
12900;SDS011;6518;50.930;5.344;2024-02-28T09:49:46;31.27;;;17.47;;
12900;SDS011;6518;50.930;5.344;2024-02-28T09:52:18;32.13;;;18.20;;
12900;SDS011;6518;50.930;5.344;2024-02-28T09:54:45;33.03;;;17.70;;
12900;SDS011;6518;50.930;5.344;2024-02-28T09:57:12;32.57;;;18.03;;
12900;SDS011;6518;50.930;5.344;2024-02-28T09:59:40;31.23;;;18.03;;
12900;SDS011;6518;50.930;5.344;2024-02-28T10:02:09;34.30;;;18.20;;
12900;SDS011;6518;50.930;5.344;2024-02-28T10:04:36;29.57;;;17.27;;
12900;SDS011;6518;50.930;5.344;2024-02-28T10:07:11;30.30;;;16.43;;
12900;SDS011;6518;50.930;5.344;2024-02-28T10:09:39;31.83;;;17.23;;
12900;SDS011;6518;50.930;5.344;2024-02-28T10:12:06;33.10;;;18.00;;
12900;SDS011;6518;50.930;5.344;2024-02-28T10:14:33;31.57;;;17.97;;
12900;SDS011;6518;50.930;5.344;2024-02-28T10:17:00;33.67;;;19.03;;
12900;SDS011;6518;50.930;5.344;2024-02-28T10:19:27;31.53;;;17.73;;
12900;SDS011;6518;50.930;5.344;2024-02-28T10:21:55;31.37;;;18.33;;
12900;SDS011;6518;50.930;5.344;2024-02-28T10:24:25;30.27;;;16.70;;
12900;SDS011;6518;50.930;5.344;2024-02-28T10:26:52;31.87;;;17.83;;
12900;SDS011;6518;50.930;5.344;2024-02-28T10:29:21;31.13;;;17.50;;
12900;SDS011;6518;50.930;5.344;2024-02-28T10:31:48;29.40;;;16.93;;
12900;SDS011;6518;50.930;5.344;2024-02-28T10:34:15;30.00;;;17.80;;
12900;SDS011;6518;50.930;5.344;2024-02-28T10:36:43;29.67;;;17.30;;
12900;SDS011;6518;50.930;5.344;2024-02-28T10:39:10;33.23;;;18.17;;
12900;SDS011;6518;50.930;5.344;2024-02-28T10:41:39;28.70;;;17.77;;
12900;SDS011;6518;50.930;5.344;2024-02-28T10:44:06;29.60;;;17.97;;
12900;SDS011;6518;50.930;5.344;2024-02-28T10:46:34;33.13;;;18.20;;
12900;SDS011;6518;50.930;5.344;2024-02-28T10:49:03;26.27;;;16.23;;
12900;SDS011;6518;50.930;5.344;2024-02-28T10:51:30;29.10;;;16.23;;
12900;SDS011;6518;50.930;5.344;2024-02-28T10:54:04;27.70;;;16.80;;
12900;SDS011;6518;50.930;5.344;2024-02-28T10:56:36;31.00;;;17.10;;
12900;SDS011;6518;50.930;5.344;2024-02-28T10:59:05;26.63;;;16.50;;
12900;SDS011;6518;50.930;5.344;2024-02-28T11:01:34;28.50;;;16.77;;
12900;SDS011;6518;50.930;5.344;2024-02-28T11:04:03;27.83;;;16.20;;
12900;SDS011;6518;50.930;5.344;2024-02-28T11:06:30;27.47;;;16.53;;
12900;SDS011;6518;50.930;5.344;2024-02-28T11:08:58;29.70;;;16.80;;
12900;SDS011;6518;50.930;5.344;2024-02-28T11:11:29;29.37;;;16.47;;
12900;SDS011;6518;50.930;5.344;2024-02-28T11:13:57;31.33;;;16.67;;
12900;SDS011;6518;50.930;5.344;2024-02-28T11:16:28;32.27;;;17.10;;
12900;SDS011;6518;50.930;5.344;2024-02-28T11:18:56;29.00;;;16.20;;
12900;SDS011;6518;50.930;5.344;2024-02-28T11:21:24;26.97;;;16.00;;
12900;SDS011;6518;50.930;5.344;2024-02-28T11:23:52;25.13;;;14.87;;
12900;SDS011;6518;50.930;5.344;2024-02-28T11:26:23;23.13;;;14.90;;
12900;SDS011;6518;50.930;5.344;2024-02-28T11:28:50;28.90;;;15.43;;
12900;SDS011;6518;50.930;5.344;2024-02-28T11:31:17;27.30;;;15.73;;
12900;SDS011;6518;50.930;5.344;2024-02-28T11:33:45;26.63;;;13.97;;
12900;SDS011;6518;50.930;5.344;2024-02-28T11:36:12;30.10;;;15.43;;
12900;SDS011;6518;50.930;5.344;2024-02-28T11:38:39;27.43;;;14.90;;
12900;SDS011;6518;50.930;5.344;2024-02-28T11:41:06;23.40;;;13.57;;
12900;SDS011;6518;50.930;5.344;2024-02-28T11:43:34;23.03;;;13.90;;
12900;SDS011;6518;50.930;5.344;2024-02-28T11:46:01;26.70;;;14.33;;
12900;SDS011;6518;50.930;5.344;2024-02-28T11:48:33;20.17;;;12.67;;
12900;SDS011;6518;50.930;5.344;2024-02-28T11:51:02;20.07;;;12.80;;
12900;SDS011;6518;50.930;5.344;2024-02-28T11:53:29;20.90;;;11.97;;
12900;SDS011;6518;50.930;5.344;2024-02-28T11:55:55;21.17;;;11.73;;
12900;SDS011;6518;50.930;5.344;2024-02-28T11:58:22;20.27;;;11.53;;
12900;SDS011;6518;50.930;5.344;2024-02-28T12:00:49;21.20;;;12.57;;
12900;SDS011;6518;50.930;5.344;2024-02-28T12:03:20;19.13;;;10.47;;
12900;SDS011;6518;50.930;5.344;2024-02-28T12:05:48;18.70;;;11.30;;
12900;SDS011;6518;50.930;5.344;2024-02-28T12:08:18;17.33;;;11.60;;
12900;SDS011;6518;50.930;5.344;2024-02-28T12:10:45;18.63;;;11.67;;
12900;SDS011;6518;50.930;5.344;2024-02-28T12:13:15;23.47;;;13.57;;
12900;SDS011;6518;50.930;5.344;2024-02-28T12:15:43;20.00;;;11.60;;
12900;SDS011;6518;50.930;5.344;2024-02-28T12:18:10;21.50;;;11.13;;
12900;SDS011;6518;50.930;5.344;2024-02-28T12:20:37;19.30;;;11.43;;
12900;SDS011;6518;50.930;5.344;2024-02-28T12:23:04;19.87;;;11.07;;
12900;SDS011;6518;50.930;5.344;2024-02-28T12:25:34;19.67;;;11.17;;
12900;SDS011;6518;50.930;5.344;2024-02-28T12:28:01;20.73;;;12.07;;
12900;SDS011;6518;50.930;5.344;2024-02-28T12:30:30;19.83;;;10.93;;
12900;SDS011;6518;50.930;5.344;2024-02-28T12:32:57;18.57;;;10.63;;
12900;SDS011;6518;50.930;5.344;2024-02-28T12:35:25;18.47;;;11.20;;
12900;SDS011;6518;50.930;5.344;2024-02-28T12:37:52;16.07;;;9.67;;
12900;SDS011;6518;50.930;5.344;2024-02-28T12:40:19;17.13;;;10.27;;
12900;SDS011;6518;50.930;5.344;2024-02-28T12:42:47;12.53;;;8.33;;
12900;SDS011;6518;50.930;5.344;2024-02-28T12:45:14;14.57;;;8.40;;
12900;SDS011;6518;50.930;5.344;2024-02-28T12:47:41;17.37;;;8.70;;
12900;SDS011;6518;50.930;5.344;2024-02-28T12:50:08;10.90;;;7.33;;
12900;SDS011;6518;50.930;5.344;2024-02-28T12:52:36;9.43;;;6.07;;
12900;SDS011;6518;50.930;5.344;2024-02-28T12:55:03;11.77;;;6.00;;
12900;SDS011;6518;50.930;5.344;2024-02-28T12:57:30;9.03;;;5.47;;
12900;SDS011;6518;50.930;5.344;2024-02-28T12:59:58;9.47;;;5.23;;
12900;SDS011;6518;50.930;5.344;2024-02-28T13:02:27;9.80;;;4.90;;
12900;SDS011;6518;50.930;5.344;2024-02-28T13:04:54;6.93;;;4.70;;
12900;SDS011;6518;50.930;5.344;2024-02-28T13:07:21;7.37;;;4.30;;
12900;SDS011;6518;50.930;5.344;2024-02-28T13:09:48;8.30;;;4.37;;
12900;SDS011;6518;50.930;5.344;2024-02-28T13:12:15;6.90;;;4.07;;
12900;SDS011;6518;50.930;5.344;2024-02-28T13:14:44;6.00;;;4.33;;
12900;SDS011;6518;50.930;5.344;2024-02-28T13:17:12;6.03;;;3.90;;
12900;SDS011;6518;50.930;5.344;2024-02-28T13:19:40;6.37;;;4.60;;
12900;SDS011;6518;50.930;5.344;2024-02-28T13:22:07;5.80;;;3.80;;
12900;SDS011;6518;50.930;5.344;2024-02-28T13:24:34;4.03;;;3.17;;
12900;SDS011;6518;50.930;5.344;2024-02-28T13:27:01;4.60;;;3.10;;
12900;SDS011;6518;50.930;5.344;2024-02-28T13:29:28;4.77;;;2.87;;
12900;SDS011;6518;50.930;5.344;2024-02-28T13:31:56;5.57;;;3.60;;
12900;SDS011;6518;50.930;5.344;2024-02-28T13:34:25;4.57;;;3.20;;
12900;SDS011;6518;50.930;5.344;2024-02-28T13:36:52;5.83;;;2.77;;
12900;SDS011;6518;50.930;5.344;2024-02-28T13:39:19;6.20;;;3.20;;
12900;SDS011;6518;50.930;5.344;2024-02-28T13:41:48;4.83;;;2.70;;
12900;SDS011;6518;50.930;5.344;2024-02-28T13:44:16;3.87;;;2.70;;
12900;SDS011;6518;50.930;5.344;2024-02-28T13:46:44;3.90;;;2.87;;
12900;SDS011;6518;50.930;5.344;2024-02-28T13:49:11;4.70;;;3.00;;
12900;SDS011;6518;50.930;5.344;2024-02-28T13:51:41;4.10;;;2.70;;
12900;SDS011;6518;50.930;5.344;2024-02-28T13:54:08;5.43;;;3.10;;
12900;SDS011;6518;50.930;5.344;2024-02-28T13:56:35;4.43;;;2.90;;
12900;SDS011;6518;50.930;5.344;2024-02-28T13:59:02;3.73;;;2.50;;
12900;SDS011;6518;50.930;5.344;2024-02-28T14:01:29;4.17;;;3.10;;
12900;SDS011;6518;50.930;5.344;2024-02-28T14:03:56;4.50;;;2.77;;
12900;SDS011;6518;50.930;5.344;2024-02-28T14:06:23;5.20;;;3.47;;
12900;SDS011;6518;50.930;5.344;2024-02-28T14:08:51;6.37;;;3.00;;
12900;SDS011;6518;50.930;5.344;2024-02-28T14:11:18;3.63;;;2.80;;
12900;SDS011;6518;50.930;5.344;2024-02-28T14:13:45;3.60;;;2.73;;
12900;SDS011;6518;50.930;5.344;2024-02-28T14:16:12;4.53;;;2.73;;
12900;SDS011;6518;50.930;5.344;2024-02-28T14:18:39;3.93;;;2.47;;
12900;SDS011;6518;50.930;5.344;2024-02-28T14:21:06;3.57;;;2.20;;
12900;SDS011;6518;50.930;5.344;2024-02-28T14:23:33;4.47;;;2.57;;
12900;SDS011;6518;50.930;5.344;2024-02-28T14:26:02;4.70;;;2.30;;
12900;SDS011;6518;50.930;5.344;2024-02-28T14:28:29;2.90;;;2.17;;
12900;SDS011;6518;50.930;5.344;2024-02-28T14:30:56;3.47;;;2.07;;
12900;SDS011;6518;50.930;5.344;2024-02-28T14:33:22;3.47;;;1.93;;
12900;SDS011;6518;50.930;5.344;2024-02-28T14:35:49;6.40;;;2.70;;
12900;SDS011;6518;50.930;5.344;2024-02-28T14:38:16;2.47;;;1.90;;
12900;SDS011;6518;50.930;5.344;2024-02-28T14:40:44;3.87;;;2.30;;